Plainfield, Indiana
Current Conditions -  °F | °C
As of 5:54 PM on Thursday 27 Nov 2014 (Local Time) from KIND Reporting Station
Light Snow Light Snow  
Wind Chill: 16°   Ceiling: 3500
Heat Index: 27°   Visibility: 6mi
Dew Point: 19°   Wind: 13mph
Humidity: 72%   Direction: 300°WNW
Pressure: 30.37"   Gusts: NA
Location:  39.7°N, 86.4°W
Report Text: KIND 272254Z 30011KT 6SM -SN FEW018 SCT028 OVC035 M03/M07 A3037 RMK AO2 SLP294 P0000 T10281072
Loading
Personal Weather Stations






























Interactive Weather Map New forecast layout! Learn more

10-Day Weather Forecast

Advertisements
Track Severe Weather on mobile